Latest Weather Observations for Naracoorte

IDS60801

Issued at 7:35 pm CST Wednesday 23 April 2014 (issued every 30 minutes, with the page automatically refreshed every 10 minutes)

About weather observations | Map of weather stations | Latest weather observations for SA | Other Formats
Station Details ID: 026099 Name: NARACOORTE AERODROME Lat: -36.98 Lon: 140.73 Height: 49.72 m
Data from the previous 72 hours. | See also: Recent months at Naracoorte
Date/Time
CST
Temp
°C
App
Temp
°C
Dew
Point
Rel
Hum
%
Delta-T
°C
Wind Press
QNH
hPa
Press
MSL
hPa
Rain
since 9 am
mm
Dir
 
Spd
km/h
Gust
km/h
Spd
kts
Gust
kts
23/07:30pm 12.8 9.5 6.6 66 3.0 N 13 17 7 9 1013.8 - 0.0
23/07:00pm 13.6 10.1 7.2 65 3.1 NW 15 17 8 9 1013.8 - 0.0
23/06:30pm 14.2 9.8 6.6 60 3.7 NW 19 22 10 12 1013.9 - 0.0
23/06:00pm 14.6 10.2 4.9 52 4.5 NW 17 24 9 13 1013.7 1013.7 0.0
23/05:30pm 15.6 10.6 3.7 45 5.5 NW 19 24 10 13 1013.5 - 0.0
23/05:00pm 17.2 11.4 4.5 43 6.0 WNW 24 32 13 17 1013.4 - 0.0
23/04:30pm 18.3 12.7 5.5 43 6.2 W 24 32 13 17 1013.3 - 0.0
23/04:00pm 18.6 13.6 6.4 45 6.1 W 22 28 12 15 1013.3 - 0.0
23/03:30pm 19.3 13.6 5.0 39 7.0 NW 24 33 13 18 1013.5 - 0.0
23/03:00pm 20.4 15.1 6.7 41 6.9 WNW 24 35 13 19 1013.6 1013.6 0.0
23/02:30pm 19.8 14.7 7.5 45 6.3 NW 24 35 13 19 1013.9 - 0.0
23/02:00pm 19.8 14.9 6.9 43 6.5 WNW 22 33 12 18 1014.2 - 0.0
23/01:30pm 19.6 14.7 8.3 48 5.9 NW 24 33 13 18 1014.6 - 0.0
23/01:00pm 19.1 14.9 8.4 50 5.6 NW 20 28 11 15 1015.0 - 0.0
23/12:30pm 18.7 14.5 8.4 51 5.3 WNW 20 28 11 15 1015.6 - 0.0
23/12:00pm 17.7 12.7 8.0 53 4.9 NW 24 33 13 18 1016.3 1016.4 0.0
23/11:30am 18.0 14.1 8.8 55 4.8 NNW 19 28 10 15 1016.7 - 0.0
23/11:00am 16.4 13.1 9.6 64 3.6 NNW 17 22 9 12 1017.0 - 0.0
23/10:30am 15.9 12.8 10.2 69 3.0 NNW 17 22 9 12 1017.4 - 0.0
23/10:00am 15.1 12.7 11.5 79 1.9 N 15 20 8 11 1017.7 - 0.0
23/09:30am 12.5 9.7 10.0 85 1.3 N 15 19 8 10 1018.2 - 0.0
23/09:00am 11.1 9.0 9.7 91 0.7 N 11 15 6 8 1018.5 1018.5 0.0
23/08:30am 9.1 6.2 8.0 93 0.5 N 13 15 7 8 1018.3 - 0.0
23/08:00am 8.1 5.4 7.3 95 0.4 N 11 15 6 8 1018.0 - 0.0
23/07:30am 6.9 4.4 6.5 97 0.2 NNE 9 11 5 6 1017.6 - 0.0
23/07:00am 5.8 3.1 5.7 99 0.0 N 9 13 5 7 1017.3 - 0.0
23/06:30am 5.0 3.9 4.9 99 0.0 CALM 0 0 0 0 1017.1 - 0.0
23/06:00am 4.3 3.0 4.2 99 0.0 CALM 0 0 0 0 1017.4 1017.5 0.0
23/05:30am 3.9 2.5 3.6 98 0.1 CALM 0 0 0 0 1017.7 - 0.0
23/05:00am 4.8 3.6 4.5 98 0.1 CALM 0 0 0 0 1017.4 - 0.0
23/04:30am 5.5 4.4 5.2 98 0.1 CALM 0 0 0 0 1017.1 - 0.0
23/04:00am 4.7 3.4 4.3 97 0.2 CALM 0 0 0 0 1016.9 - 0.0
23/03:30am 5.7 4.6 5.3 97 0.2 CALM 0 0 0 0 1017.0 - 0.0
23/03:00am 6.6 4.0 6.2 97 0.2 N 9 11 5 6 1016.8 1016.9 0.0
23/02:30am 6.8 4.6 6.4 97 0.2 N 7 11 4 6 1017.3 - 0.0
23/02:00am 5.5 4.4 5.1 97 0.2 CALM 0 7 0 4 1017.6 - 0.0
23/01:30am 5.7 4.6 5.3 97 0.2 CALM 0 0 0 0 1017.9 - 0.0
23/01:00am 5.5 4.4 5.1 97 0.2 CALM 0 0 0 0 1017.9 - 0.0
23/12:30am 6.0 5.0 5.6 97 0.2 CALM 0 0 0 0 1018.0 - 0.0
23/12:00am 6.5 4.5 6.1 97 0.2 N 6 7 3 4 1018.3 1018.3 0.0
 
Date/Time
CST
Temp
°C
App
Temp
°C
Dew
Point
Rel
Hum
%
Delta-T
°C
Wind Press
QNH
hPa
Press
MSL
hPa
Rain
since 9 am
mm
Dir
 
Spd
km/h
Gust
km/h
Spd
kts
Gust
kts
22/11:30pm 6.5 5.6 5.9 96 0.3 CALM 0 0 0 0 1018.5 - 0.0
22/11:00pm 6.5 5.5 5.6 94 0.4 CALM 0 0 0 0 1018.7 - 0.0
22/10:30pm 8.1 7.5 7.3 95 0.4 CALM 0 0 0 0 1019.0 - 0.0
22/10:00pm 7.8 7.1 6.9 94 0.4 CALM 0 0 0 0 1019.0 - 0.0
22/09:30pm 8.1 7.4 7.0 93 0.5 CALM 0 0 0 0 1019.0 - 0.0
22/09:00pm 8.5 7.1 7.1 91 0.7 SE 4 6 2 3 1018.9 1018.9 0.0
22/08:30pm 8.7 7.8 7.6 93 0.5 SW 2 7 1 4 1018.8 - 0.0
22/08:00pm 9.0 7.3 7.5 90 0.7 S 6 7 3 4 1018.7 - 0.0
22/07:30pm 9.4 7.4 7.3 87 1.0 SSW 7 9 4 5 1018.5 - 0.0
22/07:00pm 10.1 7.9 8.0 87 1.0 SSW 9 11 5 6 1018.2 - 0.0
22/06:30pm 11.0 7.4 8.2 83 1.4 SW 17 17 9 9 1017.7 - 0.0
22/06:00pm 12.2 8.5 7.9 75 2.1 SW 17 19 9 10 1017.3 1017.4 0.0
22/05:30pm 14.2 10.0 7.5 64 3.3 SW 19 20 10 11 1016.9 - 0.0
22/05:00pm 16.2 11.7 6.9 54 4.6 SSW 20 28 11 15 1016.6 - 0.0
22/04:30pm 17.3 11.9 7.9 54 4.8 SSW 26 32 14 17 1016.3 - 0.0
22/04:00pm 18.7 13.3 7.8 49 5.6 SW 26 33 14 18 1016.1 - 0.0
22/03:30pm 19.2 13.9 7.0 45 6.2 SSW 24 32 13 17 1015.9 - 0.0
22/03:00pm 19.7 15.7 8.1 47 6.0 WSW 19 26 10 14 1015.7 1015.8 0.0
22/02:30pm 18.6 13.4 7.1 47 5.8 SW 24 35 13 19 1015.6 - 0.0
22/02:00pm 19.5 14.5 6.3 42 6.6 SW 22 28 12 15 1015.5 - 0.0
22/01:30pm 19.7 13.8 7.4 45 6.3 SW 28 35 15 19 1015.4 - 0.0
22/01:00pm 19.4 15.0 9.0 51 5.5 SW 22 35 12 19 1015.5 - 0.0
22/12:30pm 19.3 15.5 9.2 52 5.3 SSW 19 26 10 14 1015.8 - 0.0
22/12:00pm 19.4 16.2 10.1 55 5.0 SW 17 26 9 14 1015.9 1016.0 0.0
22/11:30am 18.7 15.8 9.8 56 4.7 SSW 15 22 8 12 1016.2 - 0.0
22/11:00am 17.5 13.9 9.9 61 4.0 SSW 19 24 10 13 1016.3 - 0.0
22/10:30am 17.1 13.6 10.2 64 3.7 SSW 19 26 10 14 1016.3 - 0.0
22/10:00am 16.8 13.4 10.6 67 3.3 S 19 22 10 12 1016.2 - 0.0
22/09:30am 17.1 14.2 12.8 76 2.4 S 20 24 11 13 1016.2 - 0.0
22/09:00am 16.1 13.7 12.8 81 1.8 SSW 17 22 9 12 1015.9 1016.0 4.8
22/08:30am 15.5 14.1 13.3 87 1.2 S 13 19 7 10 1015.6 - 4.8
22/08:00am 15.2 14.5 14.2 94 0.6 SSW 11 13 6 7 1015.3 - 4.8
22/07:30am 14.3 13.8 13.7 96 0.3 SW 9 11 5 6 1015.1 - 4.8
22/07:00am 14.1 13.5 13.5 96 0.3 WSW 9 11 5 6 1014.6 - 4.8
22/06:30am 14.2 12.8 13.4 95 0.4 WSW 13 17 7 9 1014.2 - 4.8
22/06:00am 15.0 13.6 14.4 96 0.3 W 15 19 8 10 1013.7 1013.7 4.8
22/05:30am 14.8 15.0 14.2 96 0.3 NNW 6 9 3 5 1013.1 - 4.8
22/05:00am 14.8 14.8 14.2 96 0.3 WSW 7 9 4 5 1013.0 - 4.2
22/04:30am 15.3 15.0 14.5 95 0.5 NNW 9 13 5 7 1012.9 - 3.8
22/04:00am 15.3 15.6 14.5 95 0.5 W 6 9 3 5 1011.9 - 3.6
22/03:30am 15.6 13.6 15.0 96 0.3 NNE 19 20 10 11 1011.8 - 3.4
22/03:00am 15.4 15.6 14.6 95 0.5 SE 7 9 4 5 1012.2 1012.2 1.8
22/02:30am 15.7 15.5 14.7 94 0.6 SSW 9 13 5 7 1012.4 - 1.6
22/02:00am 15.9 14.6 14.9 94 0.6 W 15 20 8 11 1013.0 - 1.6
22/01:30am 15.3 14.1 14.0 92 0.7 SW 13 19 7 10 1012.1 - 1.6
22/01:00am 15.9 16.4 14.1 89 1.0 ENE 4 9 2 5 1011.5 - 1.6
22/12:30am 16.0 15.3 14.2 89 1.0 N 11 15 6 8 1011.6 - 0.8
22/12:00am 15.9 14.8 14.3 90 0.9 NNE 13 17 7 9 1011.2 1011.2 0.6
 
Date/Time
CST
Temp
°C
App
Temp
°C
Dew
Point
Rel
Hum
%
Delta-T
°C
Wind Press
QNH
hPa
Press
MSL
hPa
Rain
since 9 am
mm
Dir
 
Spd
km/h
Gust
km/h
Spd
kts
Gust
kts
21/11:30pm 16.3 15.9 14.1 87 1.3 WSW 9 17 5 9 1011.8 - 0.6
21/11:00pm 17.0 17.1 13.9 82 1.8 NNE 6 7 3 4 1011.4 - 0.6
21/10:30pm 16.4 15.3 14.4 88 1.1 NE 13 17 7 9 1011.1 - 0.6
21/10:00pm 16.8 18.2 14.3 85 1.4 CALM 0 7 0 4 1012.2 - 0.4
21/09:30pm 16.7 17.5 14.7 88 1.2 ESE 4 9 2 5 1011.9 - 0.2
21/09:00pm 17.0 16.5 13.9 82 1.8 SE 9 11 5 6 1011.5 1011.5 0.2
21/08:30pm 18.2 16.9 12.6 70 3.1 SW 11 15 6 8 1011.7 - 0.0
21/08:00pm 20.5 19.1 9.4 49 5.9 NNE 7 9 4 5 1011.4 - 0.0
21/07:30pm 20.5 17.7 8.5 46 6.3 W 13 17 7 9 1011.5 - 0.0
21/07:00pm 21.4 19.7 8.3 43 6.9 NW 7 11 4 6 1011.2 - 0.0
21/06:30pm 20.7 18.8 9.0 47 6.2 N 9 13 5 7 1011.0 - 0.0
21/06:00pm 21.0 18.5 8.3 44 6.7 W 11 17 6 9 1011.2 1011.2 0.0
21/05:30pm 23.0 20.4 7.9 38 7.9 NW 11 15 6 8 1010.7 - 0.0
21/05:00pm 22.6 20.7 7.6 38 7.8 WNW 7 11 4 6 1010.4 - 0.0
21/04:30pm 24.1 20.9 6.8 33 9.0 NNW 13 19 7 10 1010.2 - 0.0
21/04:00pm 24.4 19.8 6.6 32 9.2 NNW 20 28 11 15 1010.2 - 0.0
21/03:30pm 24.6 19.3 6.8 32 9.3 N 24 37 13 20 1010.0 - 0.0
21/03:00pm 24.6 18.5 6.8 32 9.3 N 28 43 15 23 1010.1 1010.1 0.0
21/02:30pm 24.4 17.9 6.6 32 9.2 NNW 30 43 16 23 1010.5 - 0.0
21/02:00pm 24.0 18.7 6.7 33 9.0 N 24 37 13 20 1010.7 - 0.0
21/01:30pm 23.7 17.6 6.5 33 8.9 N 28 41 15 22 1010.8 - 0.0
21/01:00pm 22.8 15.9 6.6 35 8.3 N 32 44 17 24 1011.3 - 0.0
21/12:30pm 22.6 16.5 6.8 36 8.1 N 28 39 15 21 1011.9 - 0.0
21/12:11pm 22.1 15.8 5.9 35 8.2 N 28 46 15 25 1012.2 - 0.0
21/12:00pm 23.3 16.4 6.6 34 8.6 NNE 32 43 17 23 1012.4 1012.4 0.0
21/11:30am 21.2 15.8 6.3 38 7.5 N 24 35 13 19 1013.7 - 0.0
21/11:00am 20.7 14.2 6.3 39 7.3 N 30 43 16 23 1013.9 - 0.0
21/10:30am 20.1 13.5 6.1 40 7.0 N 30 44 16 24 1013.7 - 0.0
21/10:00am 19.9 14.0 5.9 40 7.0 NNE 26 44 14 24 1013.9 - 0.0
21/09:39am 19.3 12.9 5.4 40 6.8 N 28 46 15 25 1014.2 - 0.0
21/09:30am 19.7 12.9 6.8 43 6.5 N 32 44 17 24 1014.3 - 0.0
21/09:14am 18.3 12.1 6.2 45 6.0 N 28 48 15 26 1014.4 - 0.0
21/09:00am 17.4 11.2 6.3 48 5.5 N 28 41 15 22 1014.7 1014.8 0.0
21/08:30am 16.2 10.5 6.9 54 4.6 N 26 37 14 20 1014.8 - 0.0
21/08:00am 14.9 8.2 7.5 61 3.7 NNE 32 41 17 22 1014.8 - 0.0
21/07:30am 14.0 10.0 8.2 68 2.9 N 19 28 10 15 1015.2 - 0.0
21/07:00am 13.0 9.0 8.9 76 2.1 NNE 20 28 11 15 1015.1 - 0.0
21/06:30am 11.8 7.9 9.5 86 1.2 NE 20 26 11 14 1015.2 - 0.0
21/06:00am 11.9 9.8 9.8 87 1.1 NE 11 15 6 8 1016.1 1016.2 0.0
21/05:30am 11.7 9.6 9.9 89 0.9 NE 11 15 6 8 1016.0 - 0.0
21/05:00am 11.9 9.9 10.3 90 0.8 N 11 15 6 8 1016.0 - 0.0
21/04:30am 11.9 9.0 11.0 94 0.5 NE 17 20 9 11 1015.4 - 0.0
21/04:00am 11.5 9.3 10.7 95 0.4 NNE 13 17 7 9 1015.7 - 0.0
21/03:30am 11.3 9.4 10.5 95 0.4 N 11 13 6 7 1016.2 - 0.0
21/03:00am 11.2 9.3 10.4 95 0.4 NNE 11 13 6 7 1016.0 1016.1 0.0
21/02:30am 11.2 9.7 10.4 95 0.4 N 9 11 5 6 1016.5 - 0.0
21/02:00am 11.8 9.7 11.0 95 0.4 NNE 13 17 7 9 1016.7 - 0.0
21/01:30am 11.6 9.8 10.7 94 0.5 N 11 15 6 8 1017.0 - 0.0
21/01:00am 11.8 10.0 11.0 95 0.4 NNE 11 13 6 7 1016.5 - 0.0
21/12:30am 12.0 10.3 11.2 95 0.4 NNE 11 13 6 7 1017.0 - 0.0
21/12:00am 12.3 10.7 11.4 94 0.5 N 11 13 6 7 1017.5 1017.6 0.0
 
Date/Time
CST
Temp
°C
App
Temp
°C
Dew
Point
Rel
Hum
%
Delta-T
°C
Wind Press
QNH
hPa
Press
MSL
hPa
Rain
since 9 am
mm
Dir
 
Spd
km/h
Gust
km/h
Spd
kts
Gust
kts
20/11:30pm 12.2 10.5 11.3 94 0.5 N 11 13 6 7 1017.9 - 0.0
20/11:00pm 12.1 11.1 11.0 93 0.6 N 7 9 4 5 1017.7 - 0.0
20/10:30pm 11.7 10.5 10.4 92 0.7 N 7 9 4 5 1018.1 - 0.0
20/10:00pm 12.0 10.1 10.4 90 0.8 N 11 15 6 8 1018.2 - 0.0
20/09:30pm 12.0 10.4 10.1 88 1.0 N 9 11 5 6 1018.1 - 0.0
20/09:00pm 12.5 10.6 10.4 87 1.1 N 11 15 6 8 1018.1 1018.1 0.0
20/08:30pm 12.5 10.9 10.2 86 1.2 N 9 11 5 6 1018.0 - 0.0
20/08:00pm 13.4 11.5 10.6 83 1.5 NNW 11 13 6 7 1017.7 - 0.0

Other Formats:

Comma delimited format used in spreadsheet applications
http://www.bom.gov.au/fwo/IDS60801/IDS60801.94820.axf

JavaScript Object Notation format (JSON) in row-major order
http://www.bom.gov.au/fwo/IDS60801/IDS60801.94820.json